Time;durP1;ratioP1;P1;durP2;ratioP2;P2;SDS_P1;SDS_P2;PMS_P1;PMS_P2;Temp;Humidity;BMP_temperature;BMP_pressure;BME280_temperature;BME280_humidity;BME280_pressure;Samples;Min_cycle;Max_cycle;Signal;HPM_P1;HPM_P2
2021/12/10 00:00:10;;;;;;;8.48;4.65;;;;;;;1.65;87.22;98425.72;4997936;28;20043;-73
2021/12/10 00:02:46;;;;;;;9.25;4.78;;;;;;;1.64;87.35;98429.06;4997978;28;20492;-71
2021/12/10 00:05:23;;;;;;;11.07;5.10;;;;;;;1.57;86.82;98425.63;4997947;28;20046;-71
2021/12/10 00:07:56;;;;;;;9.05;4.80;;;;;;;1.53;86.93;98428.06;4997492;28;20514;-71
2021/12/10 00:10:33;;;;;;;7.78;4.65;;;;;;;1.61;86.88;98416.47;4997478;28;20157;-73
2021/12/10 00:13:07;;;;;;;8.23;4.50;;;;;;;1.73;87.18;98414.09;4997744;28;20524;-71
2021/12/10 00:15:39;;;;;;;7.03;3.92;;;;;;;1.78;87.56;98412.47;4997432;28;20064;-73
2021/12/10 00:18:16;;;;;;;6.82;3.85;;;;;;;1.70;87.19;98416.59;4997347;28;20061;-73
2021/12/10 00:20:49;;;;;;;9.93;5.57;;;;;;;1.58;86.92;98416.41;4996416;28;20133;-72
2021/12/10 00:23:22;;;;;;;8.65;5.32;;;;;;;1.52;86.84;98411.28;4997295;28;20077;-73
2021/12/10 00:25:53;;;;;;;9.57;4.43;;;;;;;1.49;87.36;98411.25;4997524;28;20081;-72
2021/12/10 00:28:28;;;;;;;7.85;4.45;;;;;;;1.46;86.66;98421.25;4997085;28;20129;-74
2021/12/10 00:31:18;;;;;;;9.80;4.78;;;;;;;1.31;87.28;98422.72;4997095;28;20550;-70
2021/12/10 00:36:57;;;;;;;8.13;4.38;;;;;;;1.29;87.13;98438.59;4206037;29;20052;-65
2021/12/10 00:39:33;;;;;;;9.07;4.43;;;;;;;1.37;87.61;98436.22;4939145;29;20460;-64
2021/12/10 00:42:09;;;;;;;8.88;5.15;;;;;;;1.39;86.99;98445.47;4938981;29;20135;-65
2021/12/10 00:44:42;;;;;;;9.15;4.57;;;;;;;1.43;86.80;98441.31;4939292;29;20420;-64
2021/12/10 00:47:15;;;;;;;7.63;4.45;;;;;;;1.46;87.43;98441.38;4939253;29;20493;-66
2021/12/10 00:49:47;;;;;;;7.95;4.47;;;;;;;1.37;87.43;98433.69;4939083;29;20047;-64
2021/12/10 00:52:22;;;;;;;11.30;4.47;;;;;;;1.40;87.79;98441.25;4937953;29;20054;-66
2021/12/10 00:54:54;;;;;;;11.63;4.93;;;;;;;1.51;86.96;98434.75;4939068;29;20498;-64
2021/12/10 00:57:30;;;;;;;9.02;4.93;;;;;;;1.58;87.42;98442.41;4938771;29;20131;-65
2021/12/10 01:00:02;;;;;;;8.00;4.57;;;;;;;1.49;87.54;98441.41;4938689;29;20048;-65
2021/12/10 01:02:35;;;;;;;9.80;5.07;;;;;;;1.56;87.62;98441.50;4938646;29;20127;-65
2021/12/10 01:05:09;;;;;;;8.68;4.55;;;;;;;1.66;86.89;98434.94;4938593;29;20055;-65
2021/12/10 01:07:44;;;;;;;9.93;5.85;;;;;;;1.75;87.23;98430.06;4938831;29;20077;-64
2021/12/10 01:10:21;;;;;;;8.60;4.50;;;;;;;1.80;86.92;98433.50;4938446;29;20058;-64
2021/12/10 01:12:57;;;;;;;8.30;4.45;;;;;;;1.58;86.42;98441.53;4938714;29;20051;-64
2021/12/10 01:15:46;;;;;;;7.45;4.05;;;;;;;1.43;86.77;98443.81;4938352;29;20062;-64
2021/12/10 01:23:51;;;;;;;11.68;5.75;;;;;;;1.27;86.82;98420.97;4938544;29;20060;-64
2021/12/10 01:29:15;;;;;;;10.02;5.35;;;;;;;1.48;87.35;98432.19;4938094;29;20043;-65
2021/12/10 01:31:48;;;;;;;9.80;5.25;;;;;;;1.44;86.81;98435.47;4938080;29;20056;-65
2021/12/10 01:34:21;;;;;;;8.98;4.90;;;;;;;1.31;86.56;98432.78;4938047;29;20052;-64
2021/12/10 01:36:54;;;;;;;9.35;4.18;;;;;;;1.13;86.51;98431.63;4937498;29;20472;-64
2021/12/10 01:39:31;;;;;;;10.77;5.47;;;;;;;1.14;87.11;98431.66;4937985;29;20453;-64
2021/12/10 01:42:14;;;;;;;11.90;6.57;;;;;;;1.15;87.18;98435.03;4937879;29;20047;-64
2021/12/10 01:44:52;;;;;;;14.43;5.95;;;;;;;1.19;86.89;98436.75;4938422;29;20064;-64
2021/12/10 01:47:30;;;;;;;13.75;6.57;;;;;;;1.27;86.95;98443.56;4937806;29;20071;-64
2021/12/10 01:50:05;;;;;;;13.60;6.97;;;;;;;1.34;86.93;98444.53;4937976;29;20052;-64
2021/12/10 01:52:54;;;;;;;11.23;5.90;;;;;;;1.03;86.80;98440.66;4719932;23;20124;-76
2021/12/10 01:55:29;;;;;;;11.18;5.07;;;;;;;1.01;86.74;98437.28;4957217;28;20043;-72
2021/12/10 01:57:59;;;;;;;11.70;6.30;;;;;;;1.01;85.87;98432.25;4955367;29;20058;-73
2021/12/10 02:00:35;;;;;;;10.50;5.70;;;;;;;0.97;85.97;98428.03;4956806;29;20110;-72
2021/12/10 02:03:08;;;;;;;7.75;4.43;;;;;;;0.94;85.59;98430.47;4956562;28;20047;-70
2021/12/10 02:05:41;;;;;;;9.48;5.03;;;;;;;0.82;85.68;98435.28;4956662;29;20140;-70
2021/12/10 02:08:10;;;;;;;12.55;6.65;;;;;;;0.57;85.54;98434.03;4956907;28;20543;-70
2021/12/10 02:10:44;;;;;;;15.85;8.35;;;;;;;0.47;85.75;98433.81;4956749;29;20075;-73
2021/12/10 02:13:14;;;;;;;10.48;6.15;;;;;;;0.55;85.59;98419.75;4955646;29;20051;-70
2021/12/10 02:15:47;;;;;;;14.48;6.45;;;;;;;0.68;85.46;98426.69;4956472;28;20047;-73
2021/12/10 02:18:17;;;;;;;11.57;6.22;;;;;;;0.56;85.00;98431.47;4955420;29;20043;-70
2021/12/10 02:21:14;;;;;;;10.82;5.22;;;;;;;0.51;85.48;98430.53;4956392;28;20101;-71
2021/12/10 02:23:54;;;;;;;11.68;5.85;;;;;;;0.39;85.08;98427.81;4956541;28;20071;-72
2021/12/10 02:26:29;;;;;;;9.40;4.57;;;;;;;0.27;84.62;98427.56;4956310;28;20483;-70
2021/12/10 02:29:02;;;;;;;10.90;5.10;;;;;;;0.21;84.88;98427.47;4956170;29;20055;-70
2021/12/10 02:31:31;;;;;;;10.20;5.32;;;;;;;0.12;84.78;98422.28;4956230;28;20109;-71
2021/12/10 02:34:17;;;;;;;12.68;6.00;;;;;;;0.12;84.69;98432.31;4915991;29;20062;-70
2021/12/10 02:36:48;;;;;;;10.60;5.43;;;;;;;0.09;84.66;98438.09;4916724;29;20064;-72
2021/12/10 02:39:24;;;;;;;12.43;4.85;;;;;;;0.05;84.52;98435.50;4900455;29;20056;-71
2021/12/10 02:41:56;;;;;;;10.88;4.82;;;;;;;-0.16;83.99;98439.25;4915935;29;20432;-69
2021/12/10 02:44:31;;;;;;;10.15;5.20;;;;;;;-0.32;84.02;98442.25;4915845;29;20083;-72
2021/12/10 02:47:05;;;;;;;10.88;5.38;;;;;;;-0.37;84.07;98446.31;4916048;29;20052;-69
2021/12/10 02:49:34;;;;;;;9.80;5.28;;;;;;;-0.42;83.59;98437.00;4915727;29;20040;-71
2021/12/10 02:52:09;;;;;;;9.63;4.82;;;;;;;-0.40;83.93;98431.19;4915804;29;20044;-68
2021/12/10 02:54:43;;;;;;;9.80;4.88;;;;;;;-0.45;83.73;98435.25;4915444;29;20510;-70
2021/12/10 02:57:18;;;;;;;11.57;5.28;;;;;;;-0.50;83.75;98439.31;4915716;29;20054;-71
2021/12/10 02:59:50;;;;;;;11.15;5.30;;;;;;;-0.45;83.76;98427.75;4915857;29;20056;-69
2021/12/10 03:02:25;;;;;;;11.20;4.88;;;;;;;-0.18;83.92;98433.38;4915622;29;20052;-71
2021/12/10 03:04:58;;;;;;;10.95;5.70;;;;;;;-0.02;83.67;98435.38;4915592;29;20052;-71
2021/12/10 03:07:32;;;;;;;9.73;5.00;;;;;;;-0.20;83.36;98437.50;4915532;29;20051;-69
2021/12/10 03:10:08;;;;;;;12.20;5.93;;;;;;;-0.44;83.04;98434.47;4915471;29;20131;-69
2021/12/10 03:12:41;;;;;;;13.88;7.03;;;;;;;-0.69;82.83;98443.06;4949899;29;20063;-69
2021/12/10 03:15:19;;;;;;;15.75;6.53;;;;;;;-0.86;83.01;98443.47;4955416;28;20466;-70
2021/12/10 03:17:52;;;;;;;12.80;5.65;;;;;;;-0.88;82.94;98442.59;4955879;28;20047;-69
2021/12/10 03:20:28;;;;;;;12.32;5.90;;;;;;;-0.80;83.19;98448.66;4955876;28;20045;-69
2021/12/10 03:23:01;;;;;;;13.98;5.72;;;;;;;-0.84;82.95;98451.91;4954389;29;20039;-70
2021/12/10 03:25:31;;;;;;;16.75;6.35;;;;;;;-0.85;83.04;98447.69;4955988;28;20401;-69
2021/12/10 03:28:04;;;;;;;;;;;;;;;-0.79;83.16;98456.19;4955872;28;20074;-69
2021/12/10 03:30:40;;;;;;;11.88;5.63;;;;;;;-0.73;83.01;98455.50;4955419;28;19989;-70
2021/12/10 03:33:14;;;;;;;11.18;5.03;;;;;;;-0.59;83.38;98464.16;4955427;28;20062;-70
2021/12/10 03:35:48;;;;;;;13.55;6.55;;;;;;;-0.49;83.08;98461.06;4955357;28;20043;-68
2021/12/10 03:38:24;;;;;;;15.57;5.90;;;;;;;-0.31;83.06;98458.97;4955349;28;20059;-68
2021/12/10 03:40:59;;;;;;;12.13;5.65;;;;;;;-0.26;82.94;98464.06;4955375;29;20051;-70
2021/12/10 03:43:29;;;;;;;11.40;5.80;;;;;;;-0.19;82.83;98456.72;4955408;28;20507;-70
2021/12/10 03:46:03;;;;;;;18.23;7.75;;;;;;;-0.12;82.65;98460.22;4955686;28;20043;-68
2021/12/10 03:48:37;;;;;;;17.30;6.97;;;;;;;-0.01;83.05;98462.16;4955683;28;20051;-70
2021/12/10 03:51:14;;;;;;;11.90;5.30;;;;;;;0.07;82.85;98458.94;4955228;29;20138;-68
2021/12/10 03:53:52;;;;;;;14.02;6.60;;;;;;;0.17;82.68;98463.34;4961156;28;20134;-69
2021/12/10 03:56:26;;;;;;;13.35;5.72;;;;;;;0.17;82.82;98465.84;4974467;28;20584;-67
2021/12/10 04:02:07;;;;;;;14.93;5.90;;;;;;;0.33;83.04;98467.84;4382886;29;20537;-62
2021/12/10 04:04:45;;;;;;;14.20;6.78;;;;;;;0.41;82.76;98471.31;4936025;29;20430;-62
2021/12/10 04:07:23;;;;;;;13.07;6.03;;;;;;;0.46;82.69;98464.72;4935917;29;20079;-62
2021/12/10 04:09:57;;;;;;;12.32;6.05;;;;;;;0.59;82.86;98461.66;4919148;29;20047;-62
2021/12/10 04:12:30;;;;;;;15.05;6.13;;;;;;;0.47;82.69;98452.25;4934749;29;20142;-63
2021/12/10 04:15:03;;;;;;;16.10;6.53;;;;;;;0.42;82.70;98457.97;4935923;29;20128;-65
2021/12/10 04:17:37;;;;;;;12.93;6.50;;;;;;;0.40;82.85;98455.44;4936162;29;20079;-64
2021/12/10 04:20:09;;;;;;;13.35;5.95;;;;;;;0.35;82.67;98451.16;4934951;29;20052;-64
2021/12/10 04:22:46;;;;;;;12.23;5.93;;;;;;;0.33;82.81;98442.75;4936051;29;20061;-64
2021/12/10 04:25:24;;;;;;;11.68;6.10;;;;;;;0.28;82.29;98444.31;4936158;29;20052;-61
2021/12/10 04:27:59;;;;;;;13.45;6.60;;;;;;;0.25;82.00;98439.25;4937363;29;20154;-62
2021/12/10 04:30:35;;;;;;;14.43;6.90;;;;;;;0.27;82.62;98445.13;4939163;29;20134;-65
2021/12/10 04:33:05;;;;;;;18.10;6.82;;;;;;;0.24;82.18;98447.59;4939187;29;20512;-63
2021/12/10 04:35:43;;;;;;;13.32;6.30;;;;;;;0.24;81.66;98447.59;4939718;29;20055;-65
2021/12/10 04:38:16;;;;;;;16.30;7.10;;;;;;;0.25;81.90;98449.28;4939051;29;20130;-63
2021/12/10 04:40:48;;;;;;;14.23;6.85;;;;;;;0.26;82.11;98449.31;4939329;29;20051;-65
2021/12/10 04:43:23;;;;;;;16.02;6.18;;;;;;;0.15;81.81;98454.91;4938935;29;20126;-65
2021/12/10 04:45:58;;;;;;;12.00;6.47;;;;;;;0.16;81.64;98459.13;4938936;29;20048;-65
2021/12/10 04:48:46;;;;;;;14.95;6.80;;;;;;;0.22;81.44;98462.59;4938843;29;20545;-63
2021/12/10 04:51:20;;;;;;;16.13;6.95;;;;;;;0.17;81.02;98466.66;4938859;29;20036;-65
2021/12/10 04:53:54;;;;;;;13.00;6.18;;;;;;;0.07;81.28;98466.47;4938822;29;20062;-65
2021/12/10 04:56:29;;;;;;;15.15;6.53;;;;;;;0.13;81.06;98472.44;4939518;29;20099;-63
2021/12/10 04:59:03;;;;;;;11.40;5.32;;;;;;;0.16;81.40;98475.03;4938757;29;20052;-64
2021/12/10 05:01:36;;;;;;;16.60;6.38;;;;;;;0.10;81.05;98474.06;4937956;29;20067;-65
2021/12/10 05:04:09;;;;;;;16.05;7.00;;;;;;;0.05;81.11;98475.63;4938627;29;20083;-63
2021/12/10 05:06:42;;;;;;;16.25;8.00;;;;;;;0.07;81.30;98484.88;4938512;29;20059;-65
2021/12/10 05:09:15;;;;;;;17.77;7.47;;;;;;;0.17;81.58;98470.88;4938607;29;20048;-64
2021/12/10 05:11:50;;;;;;;17.83;8.45;;;;;;;0.22;81.57;98474.28;4938639;29;20119;-65
2021/12/10 05:14:22;;;;;;;17.55;8.23;;;;;;;0.36;82.03;98473.75;4938470;29;20063;-63
2021/12/10 05:17:00;;;;;;;16.60;7.97;;;;;;;0.44;81.74;98477.25;4938767;29;20146;-65
2021/12/10 05:19:33;;;;;;;16.77;8.00;;;;;;;0.49;82.01;98479.84;4938353;29;20052;-63
2021/12/10 05:22:08;;;;;;;18.33;7.65;;;;;;;0.37;82.05;98489.66;4938363;29;20528;-63
2021/12/10 05:24:40;;;;;;;18.58;9.18;;;;;;;0.41;82.09;98478.84;4938534;29;20126;-64
2021/12/10 05:27:14;;;;;;;17.13;8.15;;;;;;;0.42;81.95;98483.91;4938173;29;20047;-64
2021/12/10 05:29:46;;;;;;;18.17;8.35;;;;;;;0.45;82.07;98468.06;4938190;29;20106;-62
2021/12/10 05:32:18;;;;;;;20.58;9.05;;;;;;;0.41;82.44;98458.78;4938363;29;20446;-65
2021/12/10 05:34:51;;;;;;;21.13;9.68;;;;;;;0.44;82.61;98468.88;4938418;29;20146;-62
2021/12/10 05:37:23;;;;;;;20.50;9.20;;;;;;;0.49;82.27;98467.31;4938048;29;20134;-63
2021/12/10 05:39:56;;;;;;;22.63;11.07;;;;;;;0.55;82.24;98457.41;4937696;29;20065;-63
2021/12/10 05:42:30;;;;;;;28.70;10.65;;;;;;;0.63;82.32;98453.34;4938273;29;20067;-64
2021/12/10 05:45:03;;;;;;;22.83;11.88;;;;;;;0.58;82.33;98464.97;4938260;29;20075;-62
2021/12/10 05:47:35;;;;;;;24.75;11.95;;;;;;;0.52;82.60;98459.84;4938145;29;20446;-63
2021/12/10 05:50:10;;;;;;;21.63;9.88;;;;;;;0.52;82.68;98462.34;4938057;29;20043;-64
2021/12/10 05:52:42;;;;;;;20.08;9.52;;;;;;;0.58;82.27;98465.81;4937711;29;20053;-64
2021/12/10 05:55:15;;;;;;;27.80;11.10;;;;;;;0.55;82.38;98459.91;4937752;29;20055;-64
2021/12/10 05:57:49;;;;;;;24.30;10.13;;;;;;;0.60;83.00;98468.38;4937669;29;20051;-63
2021/12/10 06:00:25;;;;;;;20.90;9.73;;;;;;;0.64;83.05;98460.09;4936974;29;20138;-62
2021/12/10 06:02:58;;;;;;;29.05;12.32;;;;;;;0.70;82.53;98460.19;4937569;29;20095;-63
2021/12/10 06:05:33;;;;;;;26.48;12.93;;;;;;;0.74;82.91;98461.09;4937591;29;20056;-63
2021/12/10 06:08:06;;;;;;;35.50;16.42;;;;;;;0.77;83.04;98464.50;4937560;29;20481;-64
2021/12/10 06:10:37;;;;;;;35.65;15.85;;;;;;;0.79;83.23;98467.91;4937346;29;20062;-63
2021/12/10 06:13:11;;;;;;;29.40;13.70;;;;;;;0.80;83.16;98464.56;4937552;29;20040;-63
2021/12/10 06:15:41;;;;;;;23.65;10.80;;;;;;;0.85;83.02;98460.47;4936162;29;20405;-63
2021/12/10 06:18:13;;;;;;;22.42;10.15;;;;;;;0.83;82.51;98477.16;4937589;29;20040;-64
2021/12/10 06:20:46;;;;;;;19.98;8.70;;;;;;;0.71;83.20;98481.97;4937268;29;20490;-64
2021/12/10 06:23:16;;;;;;;20.42;8.85;;;;;;;0.49;83.13;98490.75;4937477;29;20054;-63
2021/12/10 06:25:46;;;;;;;33.97;14.20;;;;;;;0.62;82.85;98496.84;4937024;29;20095;-62
2021/12/10 06:28:20;;;;;;;40.50;17.48;;;;;;;0.76;83.24;98490.44;4937350;29;20044;-63
2021/12/10 06:30:52;;;;;;;71.75;25.17;;;;;;;0.76;82.88;98497.97;4937327;29;20462;-62
2021/12/10 06:33:27;;;;;;;39.25;15.98;;;;;;;0.82;83.24;98490.53;4936876;29;20047;-63
2021/12/10 06:36:00;;;;;;;71.95;27.50;;;;;;;0.80;83.43;98496.34;4936889;29;20067;-63
2021/12/10 06:38:33;;;;;;;40.47;15.90;;;;;;;0.86;83.34;98494.81;4937301;29;20040;-64
2021/12/10 06:41:04;;;;;;;29.73;12.68;;;;;;;1.01;82.82;98500.09;4937144;29;20055;-63
2021/12/10 06:43:38;;;;;;;23.63;11.32;;;;;;;1.09;83.39;98511.13;4936869;29;20080;-63
2021/12/10 06:46:08;;;;;;;26.75;10.80;;;;;;;1.18;83.40;98506.25;4937060;29;20072;-63
2021/12/10 06:48:40;;;;;;;;;;;;;;;1.19;83.06;98507.94;4937456;29;20087;-64
2021/12/10 06:51:19;;;;;;;22.42;9.13;;;;;;;1.22;83.32;98509.66;4936384;29;20009;-64
2021/12/10 06:53:51;;;;;;;23.90;10.65;;;;;;;1.30;82.75;98508.13;4936957;29;20051;-63
2021/12/10 06:56:24;;;;;;;23.88;9.25;;;;;;;1.26;83.14;98506.38;4936689;29;20050;-63
2021/12/10 06:58:59;;;;;;;22.08;10.07;;;;;;;1.21;82.97;98496.25;4936864;29;20051;-64
2021/12/10 07:01:35;;;;;;;22.23;9.68;;;;;;;1.41;82.72;98498.25;4935889;29;20517;-62
2021/12/10 07:04:09;;;;;;;26.52;11.00;;;;;;;1.45;83.05;98502.50;4936820;29;20047;-63
2021/12/10 07:06:45;;;;;;;19.60;9.32;;;;;;;1.42;82.57;98510.00;4936751;29;20536;-63
2021/12/10 07:09:21;;;;;;;21.48;9.88;;;;;;;1.42;82.76;98504.97;4936490;29;20051;-64
2021/12/10 07:11:56;;;;;;;23.75;9.85;;;;;;;1.39;83.06;98503.25;4936750;29;20051;-62
2021/12/10 07:14:29;;;;;;;22.70;9.50;;;;;;;1.34;82.37;98503.16;4936430;29;20052;-64
2021/12/10 07:17:02;;;;;;;21.55;9.70;;;;;;;1.46;82.38;98501.69;4936647;29;20505;-64
2021/12/10 07:19:32;;;;;;;23.92;10.50;;;;;;;1.51;83.04;98500.94;4936315;29;20052;-63
2021/12/10 07:22:05;;;;;;;24.05;11.35;;;;;;;1.52;82.36;98496.75;4936311;29;20044;-63
2021/12/10 07:24:40;;;;;;;23.73;10.30;;;;;;;1.55;82.89;98501.81;4936532;29;20441;-64
2021/12/10 07:27:13;;;;;;;20.98;9.70;;;;;;;1.51;82.63;98495.91;4936336;29;20121;-64
2021/12/10 07:29:47;;;;;;;22.63;10.60;;;;;;;1.52;82.10;98486.69;4936210;29;20075;-64
2021/12/10 07:32:20;;;;;;;25.83;10.27;;;;;;;1.60;82.29;98487.66;4936230;29;20135;-62
2021/12/10 07:34:53;;;;;;;24.70;10.93;;;;;;;1.64;82.47;98491.91;4936528;29;20130;-64
2021/12/10 07:37:25;;;;;;;26.08;11.90;;;;;;;1.51;82.19;98467.41;4936432;29;20409;-62
2021/12/10 07:39:57;;;;;;;22.83;11.35;;;;;;;1.58;81.74;98487.66;4936246;29;20052;-62
2021/12/10 07:42:30;;;;;;;26.35;12.82;;;;;;;1.49;82.44;98481.63;4936399;29;20048;-64
2021/12/10 07:45:05;;;;;;;22.35;10.80;;;;;;;1.60;82.70;98480.13;4936157;29;20063;-63
2021/12/10 07:47:38;;;;;;;21.77;10.80;;;;;;;1.64;81.94;98476.81;4936437;29;20465;-63
2021/12/10 07:50:11;;;;;;;29.90;10.52;;;;;;;1.69;81.62;98481.09;4936034;29;20079;-63
2021/12/10 07:52:48;;;;;;;21.33;9.77;;;;;;;1.71;81.79;98481.13;4936292;29;20074;-65
2021/12/10 07:55:20;;;;;;;18.80;10.18;;;;;;;1.73;82.42;98487.00;4936332;29;20142;-63
2021/12/10 07:57:51;;;;;;;23.20;11.05;;;;;;;1.69;81.99;98473.56;4936059;29;20052;-63
2021/12/10 08:00:25;;;;;;;23.92;10.90;;;;;;;1.67;82.50;98486.94;4935696;29;20058;-64
2021/12/10 08:02:55;;;;;;;25.70;11.68;;;;;;;1.70;82.13;98489.50;4938865;29;20039;-63
2021/12/10 08:05:25;;;;;;;21.75;11.20;;;;;;;1.77;82.59;98484.59;4939578;29;20075;-63
2021/12/10 08:08:01;;;;;;;24.38;12.25;;;;;;;1.85;82.49;98482.16;4939854;29;20055;-63
2021/12/10 08:10:31;;;;;;;23.35;11.85;;;;;;;1.92;82.94;98473.91;4939468;29;20048;-64
2021/12/10 08:13:00;;;;;;;26.05;12.18;;;;;;;1.90;82.40;98480.56;4939344;29;20056;-64
2021/12/10 08:15:31;;;;;;;;;;;;;;;1.93;82.76;98470.53;4939770;29;20095;-62
2021/12/10 08:18:00;;;;;;;22.17;11.15;;;;;;;1.93;82.12;98480.59;4950793;29;19926;-63
2021/12/10 08:20:31;;;;;;;24.45;11.32;;;;;;;1.91;81.83;98475.56;4958396;29;20429;-64
2021/12/10 08:23:01;;;;;;;21.77;11.02;;;;;;;1.94;82.24;98473.06;4958010;29;20128;-63
2021/12/10 08:25:30;;;;;;;25.30;11.52;;;;;;;1.96;81.90;98473.09;4957843;29;20043;-63
2021/12/10 08:28:01;;;;;;;28.63;12.45;;;;;;;1.94;81.84;98477.28;4958726;29;20062;-63
2021/12/10 08:30:39;;;;;;;27.10;13.50;;;;;;;1.92;81.65;98481.44;4958646;29;20516;-63
2021/12/10 08:33:15;;;;;;;26.10;12.30;;;;;;;1.93;81.84;98480.59;4958171;29;20472;-62
2021/12/10 08:35:50;;;;;;;23.15;10.80;;;;;;;1.96;82.45;98485.69;4958878;29;20134;-63
2021/12/10 08:38:22;;;;;;;29.90;11.85;;;;;;;2.01;81.97;98489.09;4958154;29;20053;-63
2021/12/10 08:40:57;;;;;;;25.08;11.73;;;;;;;2.04;82.23;98484.09;4958216;29;20047;-63
2021/12/10 08:43:29;;;;;;;26.55;12.02;;;;;;;2.10;82.07;98489.22;4958142;29;20051;-63
2021/12/10 08:46:01;;;;;;;27.73;12.10;;;;;;;2.11;82.14;98485.91;4958082;29;20051;-63
2021/12/10 08:48:34;;;;;;;28.83;12.40;;;;;;;2.11;82.11;98485.91;4958022;29;20051;-63
2021/12/10 08:51:10;;;;;;;24.25;11.95;;;;;;;2.14;82.24;98475.00;4957973;29;20062;-63
2021/12/10 08:53:41;;;;;;;23.67;11.25;;;;;;;2.15;81.92;98477.56;4958105;29;20056;-63
2021/12/10 08:56:10;;;;;;;24.65;12.30;;;;;;;2.10;81.77;98474.13;4957774;29;20055;-62
2021/12/10 08:58:40;;;;;;;27.15;12.40;;;;;;;2.09;81.36;98477.47;4957999;29;20085;-62
2021/12/10 09:01:14;;;;;;;30.30;12.55;;;;;;;2.10;81.49;98474.13;4957606;29;20095;-62
2021/12/10 09:03:45;;;;;;;26.45;13.00;;;;;;;2.11;81.78;98465.78;4957914;29;20497;-63
2021/12/10 09:06:17;;;;;;;28.10;12.38;;;;;;;2.13;81.28;98469.16;4958126;29;20442;-63
2021/12/10 09:08:47;;;;;;;27.38;12.68;;;;;;;2.13;81.14;98456.56;4956420;29;20043;-62
2021/12/10 09:11:17;;;;;;;;;;;;;;;2.15;82.15;98457.44;4958164;29;20055;-63
2021/12/10 09:14:02;;;;;;;24.98;11.52;;;;;;;2.32;81.31;98455.09;4956665;28;20265;-64
2021/12/10 09:16:35;;;;;;;29.02;12.70;;;;;;;2.29;81.20;98445.84;4957683;29;20103;-63
2021/12/10 09:19:11;;;;;;;30.98;14.73;;;;;;;2.30;81.64;98447.56;4957648;29;20145;-62
2021/12/10 09:21:42;;;;;;;28.70;15.38;;;;;;;2.24;81.54;98441.59;4957315;29;20113;-62
2021/12/10 09:24:13;;;;;;;39.75;20.00;;;;;;;2.27;80.90;98436.59;4957338;29;20051;-62
2021/12/10 09:26:45;;;;;;;33.10;15.48;;;;;;;2.26;81.70;98435.75;4957550;29;20066;-64
2021/12/10 09:29:17;;;;;;;33.03;15.18;;;;;;;2.29;81.27;98440.81;4957256;29;20058;-63
2021/12/10 09:31:48;;;;;;;62.20;27.48;;;;;;;2.29;81.13;98430.75;4957146;29;20055;-62
2021/12/10 09:34:19;;;;;;;33.85;16.15;;;;;;;2.31;81.29;98424.06;4957351;29;20047;-64
2021/12/10 09:36:52;;;;;;;30.42;14.55;;;;;;;2.38;81.53;98425.81;4957394;29;20142;-64
2021/12/10 09:39:23;;;;;;;24.52;12.52;;;;;;;2.45;81.77;98417.50;4956942;29;20142;-64
2021/12/10 09:41:54;;;;;;;31.42;13.95;;;;;;;2.45;81.53;98422.53;4957213;29;20054;-64
2021/12/10 09:44:26;;;;;;;32.08;14.13;;;;;;;2.47;80.86;98415.84;4956920;29;20495;-62
2021/12/10 09:46:58;;;;;;;29.17;15.75;;;;;;;2.49;80.98;98418.38;4957233;29;20045;-63
2021/12/10 09:49:28;;;;;;;28.88;14.13;;;;;;;2.45;80.86;98407.44;4957213;29;20445;-63
2021/12/10 09:52:01;;;;;;;31.08;14.65;;;;;;;2.44;81.00;98400.72;4956716;29;20070;-64
2021/12/10 09:54:32;;;;;;;32.22;13.75;;;;;;;2.51;81.21;98397.44;4956883;29;20039;-62
2021/12/10 09:57:09;;;;;;;25.63;12.40;;;;;;;2.57;81.35;98396.63;4956611;29;20055;-63
2021/12/10 09:59:40;;;;;;;27.48;12.43;;;;;;;2.53;80.89;98390.75;4956623;29;20047;-62
2021/12/10 10:02:12;;;;;;;29.02;13.27;;;;;;;2.53;80.66;98385.69;4956436;29;20070;-62
2021/12/10 10:04:48;;;;;;;26.70;13.20;;;;;;;2.59;81.08;98390.78;4956532;29;20083;-63
2021/12/10 10:07:20;;;;;;;25.80;13.45;;;;;;;2.62;80.73;98395.00;4956533;29;20059;-63
2021/12/10 10:09:53;;;;;;;29.48;12.55;;;;;;;2.66;80.44;98392.53;4956414;29;20047;-62
2021/12/10 10:12:29;;;;;;;28.02;14.57;;;;;;;2.59;80.51;98387.44;4956538;29;20050;-63
2021/12/10 10:15:00;;;;;;;26.92;12.15;;;;;;;2.61;80.02;98381.59;4956552;29;20047;-63
2021/12/10 10:18:02;;;;;;;26.90;12.85;;;;;;;2.58;79.80;98384.06;4956856;29;20047;-64
2021/12/10 10:20:37;;;;;;;30.15;12.85;;;;;;;2.64;80.08;98384.13;4956459;29;20070;-64
2021/12/10 10:23:11;;;;;;;33.15;15.02;;;;;;;2.67;80.97;98383.31;4956874;29;20397;-64
2021/12/10 10:25:43;;;;;;;34.65;14.13;;;;;;;2.67;80.80;98378.28;4955231;28;20560;-63
2021/12/10 10:28:15;;;;;;;29.15;13.43;;;;;;;2.56;80.38;98370.63;4956098;29;20051;-64
2021/12/10 10:30:52;;;;;;;28.08;13.75;;;;;;;2.30;80.67;98341.84;4956122;29;20520;-63
2021/12/10 10:33:23;;;;;;;31.55;13.35;;;;;;;2.43;79.98;98356.22;4956215;29;20047;-64
2021/12/10 10:35:57;;;;;;;29.70;13.25;;;;;;;2.61;80.61;98374.03;4955952;29;20110;-65
2021/12/10 10:38:27;;;;;;;29.27;13.93;;;;;;;2.56;80.77;98373.16;4955887;29;20138;-65
2021/12/10 10:41:05;;;;;;;28.67;13.27;;;;;;;2.58;80.08;98374.00;4955989;29;20075;-65
2021/12/10 10:43:38;;;;;;;26.30;12.77;;;;;;;2.44;79.83;98364.63;4956251;29;20047;-65
2021/12/10 10:46:11;;;;;;;25.67;12.35;;;;;;;2.43;79.91;98365.44;4956254;29;20505;-65
2021/12/10 10:48:48;;;;;;;26.10;12.68;;;;;;;2.38;80.19;98360.38;4955886;29;20505;-66
2021/12/10 10:51:25;;;;;;;27.35;13.13;;;;;;;2.38;80.92;98359.50;4954713;29;20513;-65
2021/12/10 10:53:55;;;;;;;29.88;13.60;;;;;;;2.45;80.88;98367.16;4955466;29;20051;-67
2021/12/10 10:56:30;;;;;;;26.65;12.80;;;;;;;2.36;79.92;98367.06;4955427;29;20058;-67
2021/12/10 10:59:11;;;;;;;30.23;12.82;;;;;;;2.44;80.40;98377.22;4943576;29;20046;-67
2021/12/10 11:01:46;;;;;;;24.90;12.40;;;;;;;2.50;80.18;98370.56;4935961;29;20072;-67
2021/12/10 11:04:29;;;;;;;28.95;12.88;;;;;;;2.60;80.28;98364.78;4919454;29;20138;-66
2021/12/10 11:07:06;;;;;;;24.15;10.90;;;;;;;2.64;79.75;98374.03;4919434;29;20051;-66
2021/12/10 11:09:42;;;;;;;26.48;12.95;;;;;;;2.75;79.63;98375.81;4936323;29;20058;-67
2021/12/10 11:12:20;;;;;;;28.92;10.88;;;;;;;2.77;79.69;98374.16;4919431;29;20134;-67
2021/12/10 11:14:55;;;;;;;23.15;10.65;;;;;;;2.81;80.00;98365.81;4936374;29;20482;-67
2021/12/10 11:17:30;;;;;;;25.63;11.63;;;;;;;2.84;79.81;98365.81;4936590;29;20047;-67
2021/12/10 11:20:11;;;;;;;26.55;11.75;;;;;;;2.85;79.73;98365.00;4936688;29;20047;-67
2021/12/10 11:22:48;;;;;;;28.77;12.45;;;;;;;2.88;79.03;98360.00;4919564;29;20055;-67
2021/12/10 11:25:23;;;;;;;32.00;13.70;;;;;;;2.78;79.23;98370.81;4936746;29;20043;-67
2021/12/10 11:27:53;;;;;;;34.67;16.83;;;;;;;2.68;78.73;98363.19;4936596;29;20054;-67
2021/12/10 11:30:26;;;;;;;32.53;16.13;;;;;;;2.49;78.99;98368.88;4936507;29;20052;-67
2021/12/10 11:33:07;;;;;;;31.60;14.77;;;;;;;2.35;79.64;98370.41;4936537;29;20490;-68
2021/12/10 11:35:42;;;;;;;33.42;14.57;;;;;;;2.34;79.31;98357.81;4935044;29;20067;-66
2021/12/10 11:38:15;;;;;;;32.83;15.20;;;;;;;2.37;80.35;98363.72;4939651;29;20074;-67
2021/12/10 11:40:50;;;;;;;33.72;16.15;;;;;;;2.43;79.84;98358.75;4940032;29;20051;-68
2021/12/10 11:43:44;;;;;;;30.40;15.15;;;;;;;2.58;80.28;98353.88;4940353;29;20062;-67
2021/12/10 11:49:24;;;;;;;25.70;11.75;;;;;;;2.82;80.23;98354.91;4881357;29;20049;-68
2021/12/10 11:52:02;;;;;;;25.55;12.38;;;;;;;2.85;79.93;98353.25;4866096;29;20072;-68
2021/12/10 11:54:37;;;;;;;22.27;11.80;;;;;;;2.83;79.84;98349.03;4913164;29;20040;-68
2021/12/10 11:57:14;;;;;;;26.52;12.30;;;;;;;2.84;80.54;98346.53;4940270;29;20505;-68
2021/12/10 11:59:48;;;;;;;26.60;12.02;;;;;;;2.83;79.59;98354.94;4939777;29;20051;-68
2021/12/10 12:02:22;;;;;;;25.17;12.80;;;;;;;2.85;79.82;98349.88;4939514;29;20059;-68
2021/12/10 12:04:54;;;;;;;22.02;11.73;;;;;;;2.87;79.99;98345.72;4939928;29;20080;-68
2021/12/10 12:07:35;;;;;;;28.67;13.15;;;;;;;2.94;79.50;98347.44;4940018;29;20047;-67
2021/12/10 12:10:15;;;;;;;26.23;12.35;;;;;;;2.97;79.97;98347.47;4939852;29;20099;-68
2021/12/10 12:12:49;;;;;;;21.45;11.38;;;;;;;2.98;79.22;98344.09;4939417;29;20050;-68
2021/12/10 12:15:24;;;;;;;27.77;12.40;;;;;;;3.04;79.26;98344.16;4939555;29;20043;-68
2021/12/10 12:17:55;;;;;;;26.80;12.23;;;;;;;3.03;80.08;98342.47;4939226;29;20107;-68
2021/12/10 12:20:35;;;;;;;25.80;12.85;;;;;;;2.99;79.57;98345.81;4939412;29;20111;-68